sensor_id;sensor_type;location;lat;lon;timestamp;P1;durP1;ratioP1;P2;durP2;ratioP2
16246;SDS011;8231;50.866;7.944;2022-07-24T00:01:12;12.02;;;11.02;;
16246;SDS011;8231;50.866;7.944;2022-07-24T00:03:40;12.23;;;11.13;;
16246;SDS011;8231;50.866;7.944;2022-07-24T00:06:09;13.05;;;11.95;;
16246;SDS011;8231;50.866;7.944;2022-07-24T00:08:37;13.50;;;11.95;;
16246;SDS011;8231;50.866;7.944;2022-07-24T00:11:07;13.70;;;12.60;;
16246;SDS011;8231;50.866;7.944;2022-07-24T00:13:35;12.68;;;11.38;;
16246;SDS011;8231;50.866;7.944;2022-07-24T00:16:03;12.57;;;11.38;;
16246;SDS011;8231;50.866;7.944;2022-07-24T00:18:33;12.13;;;11.02;;
16246;SDS011;8231;50.866;7.944;2022-07-24T00:21:02;11.82;;;10.82;;
16246;SDS011;8231;50.866;7.944;2022-07-24T00:23:30;11.82;;;10.55;;
16246;SDS011;8231;50.866;7.944;2022-07-24T00:25:59;9.73;;;8.80;;
16246;SDS011;8231;50.866;7.944;2022-07-24T00:28:27;10.05;;;9.07;;
16246;SDS011;8231;50.866;7.944;2022-07-24T00:30:55;13.27;;;12.02;;
16246;SDS011;8231;50.866;7.944;2022-07-24T00:33:24;12.07;;;11.02;;
16246;SDS011;8231;50.866;7.944;2022-07-24T00:35:53;12.07;;;11.07;;
16246;SDS011;8231;50.866;7.944;2022-07-24T00:38:21;12.07;;;10.98;;
16246;SDS011;8231;50.866;7.944;2022-07-24T00:40:49;12.52;;;11.45;;
16246;SDS011;8231;50.866;7.944;2022-07-24T00:43:18;12.63;;;11.63;;
16246;SDS011;8231;50.866;7.944;2022-07-24T00:45:47;10.20;;;9.13;;
16246;SDS011;8231;50.866;7.944;2022-07-24T00:48:15;10.73;;;9.73;;
16246;SDS011;8231;50.866;7.944;2022-07-24T00:50:45;12.25;;;9.98;;
16246;SDS011;8231;50.866;7.944;2022-07-24T00:53:16;12.80;;;11.70;;
16246;SDS011;8231;50.866;7.944;2022-07-24T00:55:45;13.10;;;11.70;;
16246;SDS011;8231;50.866;7.944;2022-07-24T00:58:13;11.68;;;10.00;;
16246;SDS011;8231;50.866;7.944;2022-07-24T01:00:41;9.88;;;8.95;;
16246;SDS011;8231;50.866;7.944;2022-07-24T01:03:09;14.25;;;12.77;;
16246;SDS011;8231;50.866;7.944;2022-07-24T01:05:37;11.40;;;10.18;;
16246;SDS011;8231;50.866;7.944;2022-07-24T01:08:05;12.05;;;10.27;;
16246;SDS011;8231;50.866;7.944;2022-07-24T01:10:35;12.77;;;10.07;;
16246;SDS011;8231;50.866;7.944;2022-07-24T01:13:03;10.10;;;9.20;;
16246;SDS011;8231;50.866;7.944;2022-07-24T01:15:31;10.77;;;9.77;;
16246;SDS011;8231;50.866;7.944;2022-07-24T01:18:00;10.35;;;9.35;;
16246;SDS011;8231;50.866;7.944;2022-07-24T01:20:29;10.70;;;9.60;;
16246;SDS011;8231;50.866;7.944;2022-07-24T01:22:59;10.57;;;9.27;;
16246;SDS011;8231;50.866;7.944;2022-07-24T01:25:27;12.23;;;11.18;;
16246;SDS011;8231;50.866;7.944;2022-07-24T01:27:55;14.77;;;10.73;;
16246;SDS011;8231;50.866;7.944;2022-07-24T01:30:24;11.63;;;10.45;;
16246;SDS011;8231;50.866;7.944;2022-07-24T01:32:52;10.30;;;9.38;;
16246;SDS011;8231;50.866;7.944;2022-07-24T01:35:20;11.85;;;10.30;;
16246;SDS011;8231;50.866;7.944;2022-07-24T01:37:49;10.55;;;9.48;;
16246;SDS011;8231;50.866;7.944;2022-07-24T01:40:19;10.32;;;9.32;;
16246;SDS011;8231;50.866;7.944;2022-07-24T01:42:48;12.75;;;9.98;;
16246;SDS011;8231;50.866;7.944;2022-07-24T01:45:17;10.85;;;9.55;;
16246;SDS011;8231;50.866;7.944;2022-07-24T01:47:45;11.25;;;10.15;;
16246;SDS011;8231;50.866;7.944;2022-07-24T01:50:14;11.32;;;10.20;;
16246;SDS011;8231;50.866;7.944;2022-07-24T01:52:43;10.68;;;9.68;;
16246;SDS011;8231;50.866;7.944;2022-07-24T01:55:11;11.32;;;10.23;;
16246;SDS011;8231;50.866;7.944;2022-07-24T01:57:41;14.48;;;12.07;;
16246;SDS011;8231;50.866;7.944;2022-07-24T02:00:09;12.07;;;10.40;;
16246;SDS011;8231;50.866;7.944;2022-07-24T02:02:40;11.63;;;10.38;;
16246;SDS011;8231;50.866;7.944;2022-07-24T02:05:09;12.23;;;11.02;;
16246;SDS011;8231;50.866;7.944;2022-07-24T02:07:39;13.70;;;12.50;;
16246;SDS011;8231;50.866;7.944;2022-07-24T02:10:08;14.60;;;13.30;;
16246;SDS011;8231;50.866;7.944;2022-07-24T02:12:37;13.95;;;12.52;;
16246;SDS011;8231;50.866;7.944;2022-07-24T02:15:08;15.15;;;13.80;;
16246;SDS011;8231;50.866;7.944;2022-07-24T02:17:37;14.68;;;13.38;;
16246;SDS011;8231;50.866;7.944;2022-07-24T02:20:05;15.25;;;13.95;;
16246;SDS011;8231;50.866;7.944;2022-07-24T02:22:36;15.32;;;13.98;;
16246;SDS011;8231;50.866;7.944;2022-07-24T02:25:04;12.38;;;11.18;;
16246;SDS011;8231;50.866;7.944;2022-07-24T02:27:34;13.05;;;11.27;;
16246;SDS011;8231;50.866;7.944;2022-07-24T02:30:03;14.63;;;13.35;;
16246;SDS011;8231;50.866;7.944;2022-07-24T02:32:35;14.13;;;13.00;;
16246;SDS011;8231;50.866;7.944;2022-07-24T02:35:04;15.23;;;13.93;;
16246;SDS011;8231;50.866;7.944;2022-07-24T02:37:34;15.00;;;13.70;;
16246;SDS011;8231;50.866;7.944;2022-07-24T02:40:04;15.75;;;14.07;;
16246;SDS011;8231;50.866;7.944;2022-07-24T02:42:33;16.20;;;14.80;;
16246;SDS011;8231;50.866;7.944;2022-07-24T02:45:03;13.05;;;11.85;;
16246;SDS011;8231;50.866;7.944;2022-07-24T02:47:32;16.00;;;14.50;;
16246;SDS011;8231;50.866;7.944;2022-07-24T02:50:02;15.73;;;14.38;;
16246;SDS011;8231;50.866;7.944;2022-07-24T02:52:30;14.13;;;12.73;;
16246;SDS011;8231;50.866;7.944;2022-07-24T02:54:59;13.40;;;12.00;;
16246;SDS011;8231;50.866;7.944;2022-07-24T02:57:27;14.20;;;12.80;;
16246;SDS011;8231;50.866;7.944;2022-07-24T02:59:56;14.38;;;12.88;;
16246;SDS011;8231;50.866;7.944;2022-07-24T03:02:25;12.88;;;11.68;;
16246;SDS011;8231;50.866;7.944;2022-07-24T03:04:53;12.98;;;11.68;;
16246;SDS011;8231;50.866;7.944;2022-07-24T03:07:22;15.48;;;14.27;;
16246;SDS011;8231;50.866;7.944;2022-07-24T03:09:50;16.70;;;15.30;;
16246;SDS011;8231;50.866;7.944;2022-07-24T03:12:18;17.80;;;16.30;;
16246;SDS011;8231;50.866;7.944;2022-07-24T03:14:46;16.65;;;15.23;;
16246;SDS011;8231;50.866;7.944;2022-07-24T03:17:15;14.48;;;12.05;;
16246;SDS011;8231;50.866;7.944;2022-07-24T03:19:43;13.55;;;12.27;;
16246;SDS011;8231;50.866;7.944;2022-07-24T03:22:11;14.98;;;13.55;;
16246;SDS011;8231;50.866;7.944;2022-07-24T03:24:41;14.25;;;12.85;;
16246;SDS011;8231;50.866;7.944;2022-07-24T03:29:48;13.75;;;11.50;;
16246;SDS011;8231;50.866;7.944;2022-07-24T03:32:16;13.73;;;12.35;;
16246;SDS011;8231;50.866;7.944;2022-07-24T03:34:44;13.52;;;12.13;;
16246;SDS011;8231;50.866;7.944;2022-07-24T03:37:12;13.95;;;12.07;;
16246;SDS011;8231;50.866;7.944;2022-07-24T03:39:42;13.52;;;12.10;;
16246;SDS011;8231;50.866;7.944;2022-07-24T03:42:10;14.45;;;12.82;;
16246;SDS011;8231;50.866;7.944;2022-07-24T03:44:38;12.60;;;11.27;;
16246;SDS011;8231;50.866;7.944;2022-07-24T03:47:06;13.23;;;11.55;;
16246;SDS011;8231;50.866;7.944;2022-07-24T03:49:34;13.40;;;12.00;;
16246;SDS011;8231;50.866;7.944;2022-07-24T03:52:03;11.50;;;10.50;;
16246;SDS011;8231;50.866;7.944;2022-07-24T03:54:31;12.77;;;11.25;;
16246;SDS011;8231;50.866;7.944;2022-07-24T03:57:01;15.57;;;14.18;;
16246;SDS011;8231;50.866;7.944;2022-07-24T03:59:29;16.45;;;15.05;;
16246;SDS011;8231;50.866;7.944;2022-07-24T04:01:57;16.65;;;15.13;;
16246;SDS011;8231;50.866;7.944;2022-07-24T04:04:26;17.02;;;15.50;;
16246;SDS011;8231;50.866;7.944;2022-07-24T04:06:54;11.38;;;10.27;;
16246;SDS011;8231;50.866;7.944;2022-07-24T04:09:22;15.00;;;13.88;;
16246;SDS011;8231;50.866;7.944;2022-07-24T04:11:58;15.27;;;13.98;;
16246;SDS011;8231;50.866;7.944;2022-07-24T04:14:27;13.05;;;10.75;;
16246;SDS011;8231;50.866;7.944;2022-07-24T04:16:55;12.43;;;11.25;;
16246;SDS011;8231;50.866;7.944;2022-07-24T04:19:23;21.00;;;13.63;;
16246;SDS011;8231;50.866;7.944;2022-07-24T04:21:52;11.50;;;10.40;;
16246;SDS011;8231;50.866;7.944;2022-07-24T04:24:20;10.85;;;9.75;;
16246;SDS011;8231;50.866;7.944;2022-07-24T04:26:48;11.93;;;10.82;;
16246;SDS011;8231;50.866;7.944;2022-07-24T04:29:16;16.17;;;11.90;;
16246;SDS011;8231;50.866;7.944;2022-07-24T04:31:49;12.15;;;10.77;;
16246;SDS011;8231;50.866;7.944;2022-07-24T04:34:17;12.63;;;10.93;;
16246;SDS011;8231;50.866;7.944;2022-07-24T04:36:45;11.85;;;10.68;;
16246;SDS011;8231;50.866;7.944;2022-07-24T04:39:14;13.15;;;10.82;;
16246;SDS011;8231;50.866;7.944;2022-07-24T04:41:42;11.85;;;10.52;;
16246;SDS011;8231;50.866;7.944;2022-07-24T04:44:11;11.48;;;10.20;;
16246;SDS011;8231;50.866;7.944;2022-07-24T04:46:39;11.23;;;10.13;;
16246;SDS011;8231;50.866;7.944;2022-07-24T04:49:08;11.63;;;10.48;;
16246;SDS011;8231;50.866;7.944;2022-07-24T04:51:37;11.48;;;10.35;;
16246;SDS011;8231;50.866;7.944;2022-07-24T04:54:05;11.38;;;10.18;;
16246;SDS011;8231;50.866;7.944;2022-07-24T04:56:33;12.35;;;10.38;;
16246;SDS011;8231;50.866;7.944;2022-07-24T04:59:01;10.75;;;9.75;;
16246;SDS011;8231;50.866;7.944;2022-07-24T05:01:30;11.30;;;10.20;;
16246;SDS011;8231;50.866;7.944;2022-07-24T05:03:58;11.45;;;10.45;;
16246;SDS011;8231;50.866;7.944;2022-07-24T05:06:28;11.95;;;10.65;;
16246;SDS011;8231;50.866;7.944;2022-07-24T05:08:56;10.23;;;9.25;;
16246;SDS011;8231;50.866;7.944;2022-07-24T05:11:24;10.93;;;10.00;;
16246;SDS011;8231;50.866;7.944;2022-07-24T05:13:52;10.45;;;9.15;;
16246;SDS011;8231;50.866;7.944;2022-07-24T05:16:20;10.32;;;9.43;;
16246;SDS011;8231;50.866;7.944;2022-07-24T05:18:48;11.52;;;10.13;;
16246;SDS011;8231;50.866;7.944;2022-07-24T05:21:16;10.30;;;9.10;;
16246;SDS011;8231;50.866;7.944;2022-07-24T05:23:46;11.15;;;10.05;;
16246;SDS011;8231;50.866;7.944;2022-07-24T05:26:14;9.25;;;8.35;;
16246;SDS011;8231;50.866;7.944;2022-07-24T05:28:42;8.98;;;8.07;;
16246;SDS011;8231;50.866;7.944;2022-07-24T05:31:10;8.13;;;7.43;;
16246;SDS011;8231;50.866;7.944;2022-07-24T05:33:38;8.35;;;7.55;;
16246;SDS011;8231;50.866;7.944;2022-07-24T05:36:07;8.25;;;7.50;;
16246;SDS011;8231;50.866;7.944;2022-07-24T05:38:35;7.47;;;6.78;;
16246;SDS011;8231;50.866;7.944;2022-07-24T05:41:05;7.32;;;6.68;;
16246;SDS011;8231;50.866;7.944;2022-07-24T05:43:33;8.25;;;7.47;;
16246;SDS011;8231;50.866;7.944;2022-07-24T05:46:01;7.80;;;7.10;;
16246;SDS011;8231;50.866;7.944;2022-07-24T05:48:30;6.70;;;6.13;;
16246;SDS011;8231;50.866;7.944;2022-07-24T05:50:58;7.43;;;6.80;;
16246;SDS011;8231;50.866;7.944;2022-07-24T05:53:26;6.85;;;6.25;;
16246;SDS011;8231;50.866;7.944;2022-07-24T05:55:55;5.93;;;5.43;;
16246;SDS011;8231;50.866;7.944;2022-07-24T05:58:24;6.25;;;5.57;;
16246;SDS011;8231;50.866;7.944;2022-07-24T06:00:52;6.15;;;5.50;;
16246;SDS011;8231;50.866;7.944;2022-07-24T06:03:20;5.28;;;4.88;;
16246;SDS011;8231;50.866;7.944;2022-07-24T06:05:48;5.45;;;4.78;;
16246;SDS011;8231;50.866;7.944;2022-07-24T06:08:16;5.13;;;4.82;;
16246;SDS011;8231;50.866;7.944;2022-07-24T06:10:44;5.05;;;4.55;;
16246;SDS011;8231;50.866;7.944;2022-07-24T06:13:14;4.55;;;4.18;;
16246;SDS011;8231;50.866;7.944;2022-07-24T06:15:43;5.03;;;4.57;;
16246;SDS011;8231;50.866;7.944;2022-07-24T06:18:11;4.65;;;4.25;;
16246;SDS011;8231;50.866;7.944;2022-07-24T06:20:39;4.60;;;4.30;;
16246;SDS011;8231;50.866;7.944;2022-07-24T06:23:08;4.13;;;3.83;;
16246;SDS011;8231;50.866;7.944;2022-07-24T06:25:47;4.53;;;4.22;;
16246;SDS011;8231;50.866;7.944;2022-07-24T06:28:15;4.57;;;4.05;;
16246;SDS011;8231;50.866;7.944;2022-07-24T06:30:45;3.85;;;3.45;;
16246;SDS011;8231;50.866;7.944;2022-07-24T06:33:13;3.90;;;3.60;;
16246;SDS011;8231;50.866;7.944;2022-07-24T06:35:41;6.03;;;4.25;;
16246;SDS011;8231;50.866;7.944;2022-07-24T06:38:09;4.80;;;4.00;;
16246;SDS011;8231;50.866;7.944;2022-07-24T06:40:38;3.63;;;3.33;;
16246;SDS011;8231;50.866;7.944;2022-07-24T06:43:06;4.25;;;2.92;;
16246;SDS011;8231;50.866;7.944;2022-07-24T06:45:34;4.03;;;3.25;;
16246;SDS011;8231;50.866;7.944;2022-07-24T06:48:04;3.63;;;3.05;;
16246;SDS011;8231;50.866;7.944;2022-07-24T06:50:33;3.20;;;2.83;;
16246;SDS011;8231;50.866;7.944;2022-07-24T06:53:01;3.10;;;2.83;;
16246;SDS011;8231;50.866;7.944;2022-07-24T06:55:29;2.95;;;2.70;;
16246;SDS011;8231;50.866;7.944;2022-07-24T06:57:57;3.58;;;2.83;;
16246;SDS011;8231;50.866;7.944;2022-07-24T07:00:25;4.68;;;2.97;;
16246;SDS011;8231;50.866;7.944;2022-07-24T07:02:53;5.13;;;3.10;;
16246;SDS011;8231;50.866;7.944;2022-07-24T07:05:23;3.20;;;2.90;;
16246;SDS011;8231;50.866;7.944;2022-07-24T07:07:51;3.30;;;2.88;;
16246;SDS011;8231;50.866;7.944;2022-07-24T07:10:19;2.90;;;2.70;;
16246;SDS011;8231;50.866;7.944;2022-07-24T07:12:47;3.08;;;2.83;;
16246;SDS011;8231;50.866;7.944;2022-07-24T07:15:15;3.13;;;2.78;;
16246;SDS011;8231;50.866;7.944;2022-07-24T07:17:44;3.45;;;3.15;;
16246;SDS011;8231;50.866;7.944;2022-07-24T07:20:13;2.97;;;2.78;;
16246;SDS011;8231;50.866;7.944;2022-07-24T07:22:42;3.03;;;2.83;;
16246;SDS011;8231;50.866;7.944;2022-07-24T07:25:10;3.28;;;2.67;;
16246;SDS011;8231;50.866;7.944;2022-07-24T07:27:39;3.75;;;2.85;;
16246;SDS011;8231;50.866;7.944;2022-07-24T07:30:07;3.03;;;2.83;;
16246;SDS011;8231;50.866;7.944;2022-07-24T07:32:38;4.75;;;3.13;;
16246;SDS011;8231;50.866;7.944;2022-07-24T07:35:07;5.13;;;3.05;;
16246;SDS011;8231;50.866;7.944;2022-07-24T07:37:48;3.25;;;2.95;;
16246;SDS011;8231;50.866;7.944;2022-07-24T07:40:16;3.15;;;2.85;;
16246;SDS011;8231;50.866;7.944;2022-07-24T07:42:45;3.05;;;2.75;;
16246;SDS011;8231;50.866;7.944;2022-07-24T07:45:13;4.05;;;3.20;;
16246;SDS011;8231;50.866;7.944;2022-07-24T07:47:41;3.50;;;3.20;;
16246;SDS011;8231;50.866;7.944;2022-07-24T07:50:09;3.63;;;3.33;;
16246;SDS011;8231;50.866;7.944;2022-07-24T07:52:38;3.75;;;3.15;;
16246;SDS011;8231;50.866;7.944;2022-07-24T07:55:08;3.67;;;3.38;;
16246;SDS011;8231;50.866;7.944;2022-07-24T07:57:36;4.05;;;3.50;;
16246;SDS011;8231;50.866;7.944;2022-07-24T08:00:27;4.38;;;3.95;;
16246;SDS011;8231;50.866;7.944;2022-07-24T08:02:55;4.18;;;3.08;;
16246;SDS011;8231;50.866;7.944;2022-07-24T08:05:24;4.38;;;2.92;;
16246;SDS011;8231;50.866;7.944;2022-07-24T08:07:52;3.78;;;3.47;;
16246;SDS011;8231;50.866;7.944;2022-07-24T08:10:22;3.97;;;3.30;;
16246;SDS011;8231;50.866;7.944;2022-07-24T08:12:50;4.15;;;3.40;;
16246;SDS011;8231;50.866;7.944;2022-07-24T08:15:19;5.40;;;4.05;;
16246;SDS011;8231;50.866;7.944;2022-07-24T08:17:51;4.10;;;3.38;;
16246;SDS011;8231;50.866;7.944;2022-07-24T08:20:20;3.83;;;3.53;;
16246;SDS011;8231;50.866;7.944;2022-07-24T08:22:48;3.80;;;3.50;;
16246;SDS011;8231;50.866;7.944;2022-07-24T08:25:17;3.83;;;3.45;;
16246;SDS011;8231;50.866;7.944;2022-07-24T08:27:47;3.83;;;3.53;;
16246;SDS011;8231;50.866;7.944;2022-07-24T08:30:15;3.90;;;3.60;;
16246;SDS011;8231;50.866;7.944;2022-07-24T08:32:43;3.92;;;3.72;;
16246;SDS011;8231;50.866;7.944;2022-07-24T08:35:12;3.97;;;3.63;;
16246;SDS011;8231;50.866;7.944;2022-07-24T08:37:41;4.28;;;3.97;;
16246;SDS011;8231;50.866;7.944;2022-07-24T08:40:10;3.88;;;3.58;;
16246;SDS011;8231;50.866;7.944;2022-07-24T08:42:39;4.40;;;3.58;;
16246;SDS011;8231;50.866;7.944;2022-07-24T08:45:09;3.70;;;3.40;;
16246;SDS011;8231;50.866;7.944;2022-07-24T08:47:38;4.15;;;3.78;;
16246;SDS011;8231;50.866;7.944;2022-07-24T08:50:08;4.45;;;3.85;;
16246;SDS011;8231;50.866;7.944;2022-07-24T08:52:37;5.22;;;4.15;;
16246;SDS011;8231;50.866;7.944;2022-07-24T08:55:11;4.72;;;4.32;;
16246;SDS011;8231;50.866;7.944;2022-07-24T08:57:39;3.88;;;3.55;;
16246;SDS011;8231;50.866;7.944;2022-07-24T09:00:07;4.55;;;3.97;;
16246;SDS011;8231;50.866;7.944;2022-07-24T09:02:38;4.38;;;3.85;;
16246;SDS011;8231;50.866;7.944;2022-07-24T09:05:07;4.80;;;4.40;;
16246;SDS011;8231;50.866;7.944;2022-07-24T09:07:36;5.00;;;4.55;;
16246;SDS011;8231;50.866;7.944;2022-07-24T09:10:05;4.65;;;4.25;;
16246;SDS011;8231;50.866;7.944;2022-07-24T09:12:36;4.55;;;4.25;;
16246;SDS011;8231;50.866;7.944;2022-07-24T09:15:14;4.63;;;4.10;;
16246;SDS011;8231;50.866;7.944;2022-07-24T09:17:47;5.20;;;4.80;;
16246;SDS011;8231;50.866;7.944;2022-07-24T09:20:17;4.90;;;4.50;;
16246;SDS011;8231;50.866;7.944;2022-07-24T09:22:47;4.63;;;4.22;;
16246;SDS011;8231;50.866;7.944;2022-07-24T09:25:16;5.30;;;4.50;;
16246;SDS011;8231;50.866;7.944;2022-07-24T09:30:42;5.00;;;4.50;;
16246;SDS011;8231;50.866;7.944;2022-07-24T09:33:13;5.00;;;4.53;;
16246;SDS011;8231;50.866;7.944;2022-07-24T09:35:44;4.47;;;4.00;;
16246;SDS011;8231;50.866;7.944;2022-07-24T09:38:13;4.78;;;4.38;;
16246;SDS011;8231;50.866;7.944;2022-07-24T09:40:44;4.75;;;4.25;;
16246;SDS011;8231;50.866;7.944;2022-07-24T09:43:15;4.95;;;4.07;;
16246;SDS011;8231;50.866;7.944;2022-07-24T09:45:57;5.68;;;4.93;;
16246;SDS011;8231;50.866;7.944;2022-07-24T09:48:28;5.10;;;4.65;;
16246;SDS011;8231;50.866;7.944;2022-07-24T09:51:01;5.75;;;4.72;;
16246;SDS011;8231;50.866;7.944;2022-07-24T09:53:36;5.20;;;4.78;;
16246;SDS011;8231;50.866;7.944;2022-07-24T09:56:08;5.60;;;5.10;;
16246;SDS011;8231;50.866;7.944;2022-07-24T09:58:38;5.45;;;5.00;;
16246;SDS011;8231;50.866;7.944;2022-07-24T10:01:17;4.63;;;4.18;;
16246;SDS011;8231;50.866;7.944;2022-07-24T10:03:47;4.75;;;4.25;;
16246;SDS011;8231;50.866;7.944;2022-07-24T10:06:17;5.45;;;4.93;;
16246;SDS011;8231;50.866;7.944;2022-07-24T10:08:56;5.15;;;4.65;;
16246;SDS011;8231;50.866;7.944;2022-07-24T10:11:25;5.28;;;4.78;;
16246;SDS011;8231;50.866;7.944;2022-07-24T10:13:53;5.03;;;4.63;;
16246;SDS011;8231;50.866;7.944;2022-07-24T10:19:31;5.10;;;4.32;;
16246;SDS011;8231;50.866;7.944;2022-07-24T10:22:07;5.07;;;4.68;;
16246;SDS011;8231;50.866;7.944;2022-07-24T10:24:53;4.95;;;4.45;;
16246;SDS011;8231;50.866;7.944;2022-07-24T10:27:24;5.82;;;4.63;;
16246;SDS011;8231;50.866;7.944;2022-07-24T10:29:56;4.47;;;4.07;;
16246;SDS011;8231;50.866;7.944;2022-07-24T10:32:27;4.53;;;4.13;;
16246;SDS011;8231;50.866;7.944;2022-07-24T10:35:08;5.45;;;4.93;;
16246;SDS011;8231;50.866;7.944;2022-07-24T10:37:52;5.03;;;4.63;;
16246;SDS011;8231;50.866;7.944;2022-07-24T10:40:28;6.78;;;4.50;;
16246;SDS011;8231;50.866;7.944;2022-07-24T10:43:10;5.57;;;4.72;;
16246;SDS011;8231;50.866;7.944;2022-07-24T10:45:44;5.70;;;5.20;;
16246;SDS011;8231;50.866;7.944;2022-07-24T10:48:30;6.13;;;5.00;;
16246;SDS011;8231;50.866;7.944;2022-07-24T10:51:00;4.45;;;4.05;;
16246;SDS011;8231;50.866;7.944;2022-07-24T10:53:45;5.03;;;4.53;;
16246;SDS011;8231;50.866;7.944;2022-07-24T10:56:24;5.15;;;4.53;;
16246;SDS011;8231;50.866;7.944;2022-07-24T10:58:55;5.00;;;4.60;;
16246;SDS011;8231;50.866;7.944;2022-07-24T11:01:32;5.05;;;4.65;;
16246;SDS011;8231;50.866;7.944;2022-07-24T11:06:54;4.95;;;4.55;;
16246;SDS011;8231;50.866;7.944;2022-07-24T11:09:24;4.97;;;4.50;;
16246;SDS011;8231;50.866;7.944;2022-07-24T11:12:03;5.05;;;4.70;;
16246;SDS011;8231;50.866;7.944;2022-07-24T11:14:47;5.00;;;4.38;;
16246;SDS011;8231;50.866;7.944;2022-07-24T11:20:07;4.90;;;4.50;;
16246;SDS011;8231;50.866;7.944;2022-07-24T11:22:36;5.93;;;4.75;;
16246;SDS011;8231;50.866;7.944;2022-07-24T11:25:12;5.25;;;4.75;;
16246;SDS011;8231;50.866;7.944;2022-07-24T11:27:47;5.28;;;4.88;;
16246;SDS011;8231;50.866;7.944;2022-07-24T11:30:18;5.32;;;4.93;;
16246;SDS011;8231;50.866;7.944;2022-07-24T11:32:46;5.45;;;4.80;;
16246;SDS011;8231;50.866;7.944;2022-07-24T11:35:16;4.20;;;3.90;;
16246;SDS011;8231;50.866;7.944;2022-07-24T11:37:53;4.60;;;4.20;;
16246;SDS011;8231;50.866;7.944;2022-07-24T11:40:21;5.32;;;4.80;;
16246;SDS011;8231;50.866;7.944;2022-07-24T11:42:53;4.78;;;4.38;;
16246;SDS011;8231;50.866;7.944;2022-07-24T11:45:26;4.47;;;4.18;;
16246;SDS011;8231;50.866;7.944;2022-07-24T11:47:54;5.18;;;4.78;;
16246;SDS011;8231;50.866;7.944;2022-07-24T11:50:24;4.70;;;4.30;;
16246;SDS011;8231;50.866;7.944;2022-07-24T11:52:54;5.05;;;4.05;;
16246;SDS011;8231;50.866;7.944;2022-07-24T11:55:23;4.57;;;4.18;;
16246;SDS011;8231;50.866;7.944;2022-07-24T11:57:53;4.93;;;4.45;;
16246;SDS011;8231;50.866;7.944;2022-07-24T12:00:42;5.28;;;4.78;;
16246;SDS011;8231;50.866;7.944;2022-07-24T12:03:10;4.70;;;4.20;;
16246;SDS011;8231;50.866;7.944;2022-07-24T12:05:40;5.40;;;4.90;;
16246;SDS011;8231;50.866;7.944;2022-07-24T12:08:16;4.78;;;4.38;;
16246;SDS011;8231;50.866;7.944;2022-07-24T12:10:45;4.45;;;4.05;;
16246;SDS011;8231;50.866;7.944;2022-07-24T12:13:15;8.73;;;4.25;;
16246;SDS011;8231;50.866;7.944;2022-07-24T12:15:44;4.50;;;4.20;;
16246;SDS011;8231;50.866;7.944;2022-07-24T12:18:12;7.18;;;4.15;;
16246;SDS011;8231;50.866;7.944;2022-07-24T12:20:43;4.53;;;4.13;;
16246;SDS011;8231;50.866;7.944;2022-07-24T12:23:13;4.28;;;3.95;;
16246;SDS011;8231;50.866;7.944;2022-07-24T12:25:42;4.38;;;4.00;;
16246;SDS011;8231;50.866;7.944;2022-07-24T12:28:12;4.53;;;4.13;;
16246;SDS011;8231;50.866;7.944;2022-07-24T12:30:42;5.13;;;4.68;;
16246;SDS011;8231;50.866;7.944;2022-07-24T12:33:18;6.30;;;4.68;;
16246;SDS011;8231;50.866;7.944;2022-07-24T12:35:53;4.90;;;4.50;;
16246;SDS011;8231;50.866;7.944;2022-07-24T12:38:22;5.18;;;4.78;;
16246;SDS011;8231;50.866;7.944;2022-07-24T12:41:00;4.80;;;4.35;;
16246;SDS011;8231;50.866;7.944;2022-07-24T12:43:30;4.85;;;4.30;;
16246;SDS011;8231;50.866;7.944;2022-07-24T12:46:05;4.90;;;4.50;;
16246;SDS011;8231;50.866;7.944;2022-07-24T12:48:34;4.55;;;4.20;;
16246;SDS011;8231;50.866;7.944;2022-07-24T12:51:05;5.15;;;4.38;;
16246;SDS011;8231;50.866;7.944;2022-07-24T12:53:37;3.92;;;3.72;;
16246;SDS011;8231;50.866;7.944;2022-07-24T12:56:11;5.10;;;4.60;;
16246;SDS011;8231;50.866;7.944;2022-07-24T12:58:47;4.85;;;4.35;;
16246;SDS011;8231;50.866;7.944;2022-07-24T13:01:20;4.53;;;4.22;;
16246;SDS011;8231;50.866;7.944;2022-07-24T13:03:50;5.40;;;4.22;;
16246;SDS011;8231;50.866;7.944;2022-07-24T13:06:38;4.13;;;3.72;;
16246;SDS011;8231;50.866;7.944;2022-07-24T13:09:08;4.68;;;4.38;;
16246;SDS011;8231;50.866;7.944;2022-07-24T13:11:37;5.00;;;4.10;;
16246;SDS011;8231;50.866;7.944;2022-07-24T13:14:06;4.55;;;4.22;;
16246;SDS011;8231;50.866;7.944;2022-07-24T13:16:37;4.60;;;4.30;;
16246;SDS011;8231;50.866;7.944;2022-07-24T13:19:07;5.32;;;4.43;;
16246;SDS011;8231;50.866;7.944;2022-07-24T13:21:37;4.65;;;4.28;;
16246;SDS011;8231;50.866;7.944;2022-07-24T13:24:07;5.00;;;4.28;;
16246;SDS011;8231;50.866;7.944;2022-07-24T13:26:38;4.60;;;4.20;;
16246;SDS011;8231;50.866;7.944;2022-07-24T13:29:07;4.63;;;4.32;;
16246;SDS011;8231;50.866;7.944;2022-07-24T13:31:36;4.80;;;4.35;;
16246;SDS011;8231;50.866;7.944;2022-07-24T13:34:04;5.72;;;5.05;;
16246;SDS011;8231;50.866;7.944;2022-07-24T13:36:33;4.38;;;3.83;;
16246;SDS011;8231;50.866;7.944;2022-07-24T13:39:04;4.53;;;4.13;;
16246;SDS011;8231;50.866;7.944;2022-07-24T13:41:32;4.65;;;4.30;;
16246;SDS011;8231;50.866;7.944;2022-07-24T13:44:01;4.28;;;3.88;;
16246;SDS011;8231;50.866;7.944;2022-07-24T13:46:30;4.40;;;4.00;;
16246;SDS011;8231;50.866;7.944;2022-07-24T13:48:59;4.90;;;4.50;;
16246;SDS011;8231;50.866;7.944;2022-07-24T13:51:28;4.07;;;3.78;;
16246;SDS011;8231;50.866;7.944;2022-07-24T13:53:56;5.22;;;4.82;;
16246;SDS011;8231;50.866;7.944;2022-07-24T13:56:27;4.60;;;4.30;;
16246;SDS011;8231;50.866;7.944;2022-07-24T13:58:56;4.65;;;4.25;;
16246;SDS011;8231;50.866;7.944;2022-07-24T14:01:24;4.63;;;4.18;;
16246;SDS011;8231;50.866;7.944;2022-07-24T14:04:01;4.95;;;3.95;;
16246;SDS011;8231;50.866;7.944;2022-07-24T14:06:50;3.88;;;3.67;;
16246;SDS011;8231;50.866;7.944;2022-07-24T14:09:19;4.32;;;4.03;;
16246;SDS011;8231;50.866;7.944;2022-07-24T14:11:48;4.30;;;3.90;;
16246;SDS011;8231;50.866;7.944;2022-07-24T14:14:17;4.45;;;4.05;;
16246;SDS011;8231;50.866;7.944;2022-07-24T14:16:45;5.07;;;4.28;;
16246;SDS011;8231;50.866;7.944;2022-07-24T14:19:14;4.18;;;3.88;;
16246;SDS011;8231;50.866;7.944;2022-07-24T14:21:42;4.45;;;4.10;;
16246;SDS011;8231;50.866;7.944;2022-07-24T14:24:15;4.20;;;3.90;;
16246;SDS011;8231;50.866;7.944;2022-07-24T14:26:46;4.07;;;3.55;;
16246;SDS011;8231;50.866;7.944;2022-07-24T14:29:16;4.38;;;3.97;;
16246;SDS011;8231;50.866;7.944;2022-07-24T14:31:44;4.32;;;3.95;;
16246;SDS011;8231;50.866;7.944;2022-07-24T14:34:12;4.20;;;3.90;;
16246;SDS011;8231;50.866;7.944;2022-07-24T14:36:40;4.35;;;4.03;;
16246;SDS011;8231;50.866;7.944;2022-07-24T14:39:09;4.05;;;3.75;;
16246;SDS011;8231;50.866;7.944;2022-07-24T14:41:37;4.75;;;3.88;;
16246;SDS011;8231;50.866;7.944;2022-07-24T14:44:05;4.40;;;4.10;;
16246;SDS011;8231;50.866;7.944;2022-07-24T14:46:38;4.10;;;3.80;;
16246;SDS011;8231;50.866;7.944;2022-07-24T14:49:07;4.65;;;4.25;;
16246;SDS011;8231;50.866;7.944;2022-07-24T14:51:35;3.95;;;3.65;;
16246;SDS011;8231;50.866;7.944;2022-07-24T14:54:04;4.30;;;3.90;;
16246;SDS011;8231;50.866;7.944;2022-07-24T14:56:34;4.90;;;4.20;;
16246;SDS011;8231;50.866;7.944;2022-07-24T14:59:03;3.90;;;3.60;;
16246;SDS011;8231;50.866;7.944;2022-07-24T15:01:33;5.60;;;3.95;;
16246;SDS011;8231;50.866;7.944;2022-07-24T15:04:06;7.70;;;4.63;;
16246;SDS011;8231;50.866;7.944;2022-07-24T15:06:37;4.63;;;4.30;;
16246;SDS011;8231;50.866;7.944;2022-07-24T15:09:05;4.80;;;4.30;;
16246;SDS011;8231;50.866;7.944;2022-07-24T15:11:33;4.03;;;3.55;;
16246;SDS011;8231;50.866;7.944;2022-07-24T15:14:04;3.85;;;3.55;;
16246;SDS011;8231;50.866;7.944;2022-07-24T15:16:32;4.60;;;4.15;;
16246;SDS011;8231;50.866;7.944;2022-07-24T15:19:02;4.47;;;4.07;;
16246;SDS011;8231;50.866;7.944;2022-07-24T15:21:35;4.43;;;4.03;;
16246;SDS011;8231;50.866;7.944;2022-07-24T15:24:04;3.80;;;3.50;;